Time;durP1;ratioP1;P1;durP2;ratioP2;P2;SDS_P1;SDS_P2;PMS_P1;PMS_P2;Temp;Humidity;BMP_temperature;BMP_pressure;BME280_temperature;BME280_humidity;BME280_pressure;Samples;Min_cycle;Max_cycle;Signal;HPM_P1;HPM_P2
2023/06/21 00:01:38;;;;;;;14.30;12.80;;;;;;;;;;5092861;28;20037;-76
2023/06/21 00:04:04;;;;;;;15.40;13.70;;;;;;;;;;5092191;28;20119;-75
2023/06/21 00:06:30;;;;;;;14.95;13.20;;;;;;;;;;5092980;28;20496;-76
2023/06/21 00:08:57;;;;;;;16.80;13.68;;;;;;;;;;5092872;28;20136;-76
2023/06/21 00:11:23;;;;;;;16.52;13.38;;;;;;;;;;5092739;28;20495;-76
2023/06/21 00:13:52;;;;;;;18.73;14.23;;;;;;;;;;5092629;28;20161;-76
2023/06/21 00:16:18;;;;;;;15.80;14.10;;;;;;;;;;5091065;28;20084;-76
2023/06/21 00:18:44;;;;;;;16.55;14.35;;;;;;;;;;5074471;28;20104;-76
2023/06/21 00:21:10;;;;;;;17.02;15.20;;;;;;;;;;5092854;28;20028;-76
2023/06/21 00:23:36;;;;;;;15.48;13.60;;;;;;;;;;5092936;28;20048;-76
2023/06/21 00:26:02;;;;;;;21.38;15.70;;;;;;;;;;5092811;28;20504;-76
2023/06/21 00:28:28;;;;;;;18.92;16.02;;;;;;;;;;5092751;28;20041;-76
2023/06/21 00:30:54;;;;;;;17.13;14.85;;;;;;;;;;5074682;28;20044;-76
2023/06/21 00:33:21;;;;;;;18.98;16.30;;;;;;;;;;5074365;28;20036;-76
2023/06/21 00:35:47;;;;;;;18.98;16.23;;;;;;;;;;5092931;28;20084;-76
2023/06/21 00:38:13;;;;;;;22.42;17.08;;;;;;;;;;5092608;28;20393;-76
2023/06/21 00:40:39;;;;;;;19.23;16.55;;;;;;;;;;5092902;28;20091;-76
2023/06/21 00:43:06;;;;;;;21.95;17.63;;;;;;;;;;5092744;28;20109;-76
2023/06/21 00:45:40;;;;;;;18.40;16.20;;;;;;;;;;5092283;28;20055;-76
2023/06/21 00:48:06;;;;;;;19.40;17.30;;;;;;;;;;5074450;28;20492;-76
2023/06/21 00:50:32;;;;;;;19.73;17.38;;;;;;;;;;5092700;28;20052;-76
2023/06/21 00:52:58;;;;;;;20.02;17.88;;;;;;;;;;5092183;28;20101;-76
2023/06/21 00:55:24;;;;;;;22.65;18.83;;;;;;;;;;5092090;28;20404;-76
2023/06/21 00:57:51;;;;;;;21.27;18.60;;;;;;;;;;5073252;28;20085;-76
2023/06/21 01:00:20;;;;;;;21.73;19.42;;;;;;;;;;5092320;28;20094;-76
2023/06/21 01:02:47;;;;;;;22.00;19.33;;;;;;;;;;5090354;28;20381;-75
2023/06/21 01:05:16;;;;;;;25.13;21.40;;;;;;;;;;5071445;28;20086;-76
2023/06/21 01:08:00;;;;;;;25.13;21.50;;;;;;;;;;5091869;28;20546;-76
2023/06/21 01:10:46;;;;;;;22.65;19.95;;;;;;;;;;5092533;28;20048;-76
2023/06/21 01:13:31;;;;;;;22.42;20.10;;;;;;;;;;5086998;28;20412;-76
2023/06/21 01:16:10;;;;;;;25.92;22.17;;;;;;;;;;5091934;28;20124;-76
2023/06/21 01:18:37;;;;;;;23.73;21.23;;;;;;;;;;5091871;28;20044;-76
2023/06/21 01:21:04;;;;;;;24.13;21.58;;;;;;;;;;5091846;28;20441;-76
2023/06/21 01:23:51;;;;;;;25.90;21.58;;;;;;;;;;5091488;28;20123;-76
2023/06/21 01:26:44;;;;;;;26.77;22.27;;;;;;;;;;5074004;28;20123;-76
2023/06/21 01:29:20;;;;;;;26.48;23.67;;;;;;;;;;5079033;28;20349;-76
2023/06/21 01:31:47;;;;;;;23.88;21.40;;;;;;;;;;5091855;28;20048;-76
2023/06/21 01:34:14;;;;;;;25.20;22.58;;;;;;;;;;5073653;28;20471;-76
2023/06/21 01:36:40;;;;;;;25.80;23.00;;;;;;;;;;5092348;28;20155;-76
2023/06/21 01:39:09;;;;;;;25.52;22.90;;;;;;;;;;5091717;28;20043;-75
2023/06/21 01:41:35;;;;;;;27.05;21.95;;;;;;;;;;5074196;28;20129;-76
2023/06/21 01:44:02;;;;;;;28.40;22.50;;;;;;;;;;5090894;28;20380;-76
2023/06/21 01:49:47;;;;;;;25.65;22.27;;;;;;;;;;4923462;26;20076;-76
2023/06/21 02:06:05;;;;;;;26.80;23.08;;;;;;;;;;5046602;28;20059;-76
2023/06/21 02:08:32;;;;;;;26.70;23.88;;;;;;;;;;5039991;28;20164;-76
2023/06/21 02:14:22;;;;;;;28.95;23.95;;;;;;;;;;5050177;28;20039;-76
2023/06/21 02:20:13;;;;;;;30.50;25.30;;;;;;;;;;5036363;28;20147;-75
2023/06/21 02:22:42;;;;;;;31.40;25.33;;;;;;;;;;5030355;28;20111;-76
2023/06/21 02:28:31;;;;;;;29.50;25.70;;;;;;;;;;5047594;28;20036;-76
2023/06/21 02:34:19;;;;;;;33.72;28.35;;;;;;;;;;5050021;28;20036;-76
2023/06/21 02:36:53;;;;;;;33.65;28.92;;;;;;;;;;5048501;28;20041;-77
2023/06/21 02:39:20;;;;;;;32.95;29.25;;;;;;;;;;5019915;28;20065;-76
2023/06/21 02:55:43;;;;;;;35.88;31.63;;;;;;;;;;5028894;28;20194;-76
2023/06/21 03:04:54;;;;;;;36.25;29.92;;;;;;;;;;5030163;28;20172;-76
2023/06/21 03:07:20;;;;;;;38.53;31.27;;;;;;;;;;5028497;28;20049;-75
2023/06/21 03:09:47;;;;;;;40.45;30.88;;;;;;;;;;5028644;28;20136;-76
2023/06/21 03:16:15;;;;;;;40.63;32.45;;;;;;;;;;5018137;28;20144;-76
2023/06/21 03:18:41;;;;;;;41.08;35.10;;;;;;;;;;5027106;28;20120;-76
2023/06/21 03:21:08;;;;;;;43.30;34.53;;;;;;;;;;5012069;28;20091;-76
2023/06/21 03:30:18;;;;;;;45.92;34.88;;;;;;;;;;5027911;28;20103;-75
2023/06/21 03:32:48;;;;;;;41.13;33.97;;;;;;;;;;5011763;28;20049;-74
2023/06/21 03:35:18;;;;;;;43.15;35.05;;;;;;;;;;5026224;28;20107;-76
2023/06/21 03:37:44;;;;;;;40.78;33.42;;;;;;;;;;5027847;28;20489;-76
2023/06/21 03:40:13;;;;;;;44.15;34.53;;;;;;;;;;5011029;28;20081;-75
2023/06/21 03:46:02;;;;;;;45.92;35.03;;;;;;;;;;5003567;28;20414;-75
2023/06/21 03:48:28;;;;;;;42.10;34.33;;;;;;;;;;5011083;28;20095;-75
2023/06/21 03:50:54;;;;;;;38.67;31.63;;;;;;;;;;5027167;28;20481;-74
2023/06/21 03:53:20;;;;;;;42.22;32.70;;;;;;;;;;5010611;28;20053;-75
2023/06/21 03:59:15;;;;;;;44.55;33.30;;;;;;;;;;5036494;28;20075;-75
2023/06/21 04:08:20;;;;;;;42.13;33.97;;;;;;;;;;5028333;28;20053;-75
2023/06/21 04:10:46;;;;;;;44.28;35.75;;;;;;;;;;5039349;28;20053;-75
2023/06/21 04:17:06;;;;;;;44.13;34.53;;;;;;;;;;5035103;28;20107;-75
2023/06/21 04:19:33;;;;;;;46.60;34.38;;;;;;;;;;5036509;28;20045;-75
2023/06/21 04:21:59;;;;;;;45.50;34.22;;;;;;;;;;5047262;28;20045;-75
2023/06/21 04:27:47;;;;;;;44.72;34.22;;;;;;;;;;5048117;28;20091;-75
2023/06/21 04:30:14;;;;;;;45.55;35.03;;;;;;;;;;5047024;28;20136;-75
2023/06/21 04:32:46;;;;;;;42.13;33.75;;;;;;;;;;5047009;28;20063;-76
2023/06/21 04:38:35;;;;;;;42.20;34.22;;;;;;;;;;5047078;28;20102;-75
2023/06/21 04:41:01;;;;;;;45.88;34.13;;;;;;;;;;5029800;28;20139;-75
2023/06/21 04:50:12;;;;;;;42.08;32.90;;;;;;;;;;5045253;28;20048;-74
2023/06/21 04:56:13;;;;;;;42.72;32.60;;;;;;;;;;5024661;28;20064;-76
2023/06/21 05:05:37;;;;;;;35.08;26.20;;;;;;;;;;5018421;28;20168;-74
2023/06/21 05:08:04;;;;;;;35.97;27.60;;;;;;;;;;5021567;28;20120;-73
2023/06/21 05:10:30;;;;;;;33.28;25.58;;;;;;;;;;5020563;28;20050;-72
2023/06/21 05:16:44;;;;;;;34.13;24.05;;;;;;;;;;5023730;28;20125;-72
2023/06/21 05:19:11;;;;;;;27.05;21.10;;;;;;;;;;5026720;28;20069;-72
2023/06/21 05:21:37;;;;;;;30.45;22.42;;;;;;;;;;5027582;28;20141;-72
2023/06/21 05:27:25;;;;;;;32.05;21.73;;;;;;;;;;5006901;28;20040;-73
2023/06/21 05:29:51;;;;;;;26.65;19.52;;;;;;;;;;5019723;28;20187;-73
2023/06/21 05:32:17;;;;;;;31.00;20.52;;;;;;;;;;5021802;28;20474;-73
2023/06/21 05:38:09;;;;;;;24.77;17.90;;;;;;;;;;5025437;28;20091;-72
2023/06/21 05:44:16;;;;;;;26.05;17.77;;;;;;;;;;5026884;28;20568;-74
2023/06/21 05:50:05;;;;;;;26.58;17.27;;;;;;;;;;5029739;28;20048;-75
2023/06/21 06:06:46;;;;;;;20.55;14.63;;;;;;;;;;5041995;28;20100;-71
2023/06/21 06:09:12;;;;;;;23.73;14.13;;;;;;;;;;5029385;28;20451;-70
2023/06/21 06:15:01;;;;;;;21.52;13.77;;;;;;;;;;5029942;28;20052;-71
2023/06/21 06:17:27;;;;;;;23.00;14.50;;;;;;;;;;5031420;28;20041;-71
2023/06/21 06:19:53;;;;;;;20.30;13.88;;;;;;;;;;5042801;28;20041;-72
2023/06/21 06:22:19;;;;;;;24.08;14.52;;;;;;;;;;5050367;28;20055;-72
2023/06/21 06:24:47;;;;;;;20.25;13.93;;;;;;;;;;5002132;28;20049;-72
2023/06/21 06:37:11;;;;;;;16.70;13.13;;;;;;;;;;5049605;28;20061;-71
2023/06/21 06:46:23;;;;;;;21.13;14.27;;;;;;;;;;5039665;28;20170;-71
2023/06/21 06:55:34;;;;;;;17.80;12.63;;;;;;;;;;5028038;28;20040;-71
2023/06/21 07:16:20;;;;;;;13.32;10.30;;;;;;;;;;5048724;28;20090;-71
2023/06/21 07:28:54;;;;;;;12.38;8.80;;;;;;;;;;5048481;28;20106;-71
2023/06/21 07:34:43;;;;;;;14.50;8.27;;;;;;;;;;5045489;28;20036;-72
2023/06/21 07:40:31;;;;;;;15.18;8.95;;;;;;;;;;5027478;28;20056;-71
2023/06/21 07:46:20;;;;;;;13.88;8.07;;;;;;;;;;5041214;28;20577;-72
2023/06/21 07:55:31;;;;;;;11.75;7.55;;;;;;;;;;5036766;28;20341;-70
2023/06/21 08:04:42;;;;;;;12.35;7.45;;;;;;;;;;5028420;28;20136;-75
2023/06/21 08:14:32;;;;;;;9.98;6.30;;;;;;;;;;5028229;28;20401;-75
2023/06/21 08:20:26;;;;;;;9.52;6.55;;;;;;;;;;5044547;28;20106;-75
2023/06/21 08:26:15;;;;;;;10.80;6.95;;;;;;;;;;5047514;28;20456;-75
2023/06/21 08:28:42;;;;;;;13.43;7.03;;;;;;;;;;5046402;28;20115;-75
2023/06/21 08:34:30;;;;;;;9.82;6.70;;;;;;;;;;5047594;28;20048;-76
2023/06/21 08:46:49;;;;;;;10.52;6.50;;;;;;;;;;5046437;28;20078;-74
2023/06/21 08:49:20;;;;;;;10.02;6.50;;;;;;;;;;5046947;28;20051;-74
2023/06/21 08:58:35;;;;;;;9.93;6.43;;;;;;;;;;5045009;28;20487;-74
2023/06/21 09:18:55;;;;;;;9.40;6.03;;;;;;;;;;5025887;28;20045;-74
2023/06/21 09:21:22;;;;;;;8.38;5.90;;;;;;;;;;5028171;28;20436;-74
2023/06/21 09:23:48;;;;;;;8.45;5.78;;;;;;;;;;5027544;28;20407;-75
2023/06/21 09:29:36;;;;;;;7.75;4.47;;;;;;;;;;5026537;28;20423;-75
2023/06/21 09:35:25;;;;;;;8.30;4.40;;;;;;;;;;5026849;28;20115;-75
2023/06/21 09:54:44;;;;;;;12.00;5.40;;;;;;;;;;5025377;28;20055;-74
2023/06/21 10:14:38;;;;;;;6.38;3.40;;;;;;;;;;5025540;28;20040;-72
2023/06/21 10:20:34;;;;;;;6.63;4.53;;;;;;;;;;5020593;28;20068;-74
2023/06/21 10:23:01;;;;;;;7.82;4.90;;;;;;;;;;5025758;28;20442;-74
2023/06/21 10:25:27;;;;;;;7.03;5.07;;;;;;;;;;5015730;28;20132;-73
2023/06/21 10:34:56;;;;;;;6.25;3.85;;;;;;;;;;5026630;28;20342;-74
2023/06/21 10:44:20;;;;;;;8.15;4.32;;;;;;;;;;5006588;28;20071;-73
2023/06/21 10:46:47;;;;;;;5.93;4.03;;;;;;;;;;5006182;28;20054;-73
2023/06/21 10:49:14;;;;;;;8.00;4.30;;;;;;;;;;5006310;28;20046;-74
2023/06/21 10:51:41;;;;;;;6.32;4.38;;;;;;;;;;5019217;28;20050;-74
2023/06/21 10:54:08;;;;;;;6.63;4.00;;;;;;;;;;5024732;28;20072;-74
2023/06/21 11:00:04;;;;;;;6.68;3.78;;;;;;;;;;5025607;28;20425;-73
2023/06/21 11:02:31;;;;;;;7.57;3.92;;;;;;;;;;5034381;28;20057;-73
2023/06/21 11:08:30;;;;;;;6.07;3.75;;;;;;;;;;5034720;28;20072;-75
2023/06/21 11:18:01;;;;;;;5.30;3.10;;;;;;;;;;5053735;28;20035;-75
2023/06/21 11:20:27;;;;;;;6.50;3.40;;;;;;;;;;5035642;28;20489;-75
2023/06/21 11:26:16;;;;;;;6.45;3.20;;;;;;;;;;5050388;28;20174;-75
2023/06/21 11:28:46;;;;;;;6.25;3.20;;;;;;;;;;5035531;28;20044;-75
2023/06/21 11:31:14;;;;;;;4.38;2.78;;;;;;;;;;5053357;28;20457;-76
2023/06/21 11:33:43;;;;;;;4.88;2.90;;;;;;;;;;5053675;28;20060;-75
2023/06/21 11:36:09;;;;;;;5.53;2.90;;;;;;;;;;5053632;28;20190;-75
2023/06/21 11:48:58;;;;;;;6.95;3.25;;;;;;;;;;5052001;28;20039;-75
2023/06/21 11:54:37;;;;;;;9.30;3.20;;;;;;;;;;5053357;28;19916;-75
2023/06/21 12:00:26;;;;;;;5.25;3.10;;;;;;;;;;5050194;28;20075;-75
2023/06/21 12:02:52;;;;;;;7.72;3.30;;;;;;;;;;5053022;28;20354;-75
2023/06/21 12:05:18;;;;;;;6.70;3.50;;;;;;;;;;5053364;28;20041;-75
2023/06/21 12:07:44;;;;;;;7.50;3.70;;;;;;;;;;5053352;28;20509;-75
2023/06/21 12:17:07;;;;;;;13.02;5.40;;;;;;;;;;5052942;28;20049;-74
2023/06/21 12:26:18;;;;;;;7.90;5.35;;;;;;;;;;5053130;28;20048;-74
2023/06/21 12:28:46;;;;;;;7.13;5.05;;;;;;;;;;5052818;28;20504;-74
2023/06/21 12:31:17;;;;;;;6.45;4.35;;;;;;;;;;5052359;28;20052;-74
2023/06/21 12:33:43;;;;;;;7.03;4.55;;;;;;;;;;5052499;28;20143;-75
2023/06/21 12:36:25;;;;;;;6.82;4.38;;;;;;;;;;5052657;28;20497;-75
2023/06/21 12:39:02;;;;;;;5.80;3.70;;;;;;;;;;5050865;28;20111;-74
2023/06/21 12:45:28;;;;;;;5.28;3.20;;;;;;;;;;5052738;28;20052;-74
2023/06/21 12:47:54;;;;;;;7.63;3.72;;;;;;;;;;5050517;28;20045;-74
2023/06/21 12:50:20;;;;;;;8.75;3.20;;;;;;;;;;5052413;28;20132;-73
2023/06/21 12:52:58;;;;;;;8.65;3.47;;;;;;;;;;5050546;28;20492;-73
2023/06/21 12:55:25;;;;;;;4.28;2.80;;;;;;;;;;5051577;28;20087;-74
2023/06/21 13:04:45;;;;;;;5.50;3.17;;;;;;;;;;5052390;28;20040;-74
2023/06/21 13:07:11;;;;;;;4.38;3.05;;;;;;;;;;5052136;28;20037;-75
2023/06/21 13:09:37;;;;;;;4.95;2.92;;;;;;;;;;5045278;28;20432;-75
2023/06/21 13:30:10;;;;;;;5.85;3.10;;;;;;;;;;5044007;28;20055;-75
2023/06/21 13:32:38;;;;;;;4.28;3.00;;;;;;;;;;5051283;28;20386;-75
2023/06/21 13:38:30;;;;;;;4.78;2.70;;;;;;;;;;5051859;28;20083;-75
2023/06/21 13:44:30;;;;;;;5.95;3.17;;;;;;;;;;5051946;28;20484;-75
2023/06/21 13:50:19;;;;;;;3.92;2.30;;;;;;;;;;5046460;28;20040;-75
2023/06/21 13:52:45;;;;;;;4.00;2.40;;;;;;;;;;5031960;28;20205;-75
2023/06/21 14:05:25;;;;;;;4.82;2.50;;;;;;;;;;5044326;28;20040;-75
2023/06/21 14:07:51;;;;;;;4.32;2.58;;;;;;;;;;5025763;28;20080;-75
2023/06/21 14:10:17;;;;;;;6.70;3.50;;;;;;;;;;5046930;28;20056;-75
2023/06/21 14:16:06;;;;;;;9.18;4.40;;;;;;;;;;5060269;28;20087;-75
2023/06/21 14:18:32;;;;;;;6.35;3.55;;;;;;;;;;5056799;28;20152;-75
2023/06/21 14:46:08;;;;;;;12.10;6.25;;;;;;;;;;5031420;28;20118;-75
2023/06/21 14:48:35;;;;;;;11.10;6.28;;;;;;;;;;5031746;28;20085;-75
2023/06/21 14:51:04;;;;;;;10.10;6.68;;;;;;;;;;5033075;28;20084;-74
2023/06/21 14:53:32;;;;;;;9.35;6.80;;;;;;;;;;5051424;28;20049;-75
2023/06/21 14:59:25;;;;;;;10.13;6.38;;;;;;;;;;5051239;28;20154;-75
2023/06/21 15:01:51;;;;;;;10.25;6.80;;;;;;;;;;5051318;28;20041;-74
2023/06/21 15:08:02;;;;;;;12.25;6.53;;;;;;;;;;5051447;28;20044;-74
2023/06/21 15:13:56;;;;;;;9.52;6.20;;;;;;;;;;5050355;28;20399;-73
2023/06/21 15:16:23;;;;;;;10.70;6.25;;;;;;;;;;5048132;28;20052;-74
2023/06/21 15:18:49;;;;;;;11.25;6.47;;;;;;;;;;5049469;28;20080;-74
2023/06/21 15:21:15;;;;;;;9.82;5.63;;;;;;;;;;5050393;28;20637;-74
2023/06/21 15:27:04;;;;;;;9.15;5.55;;;;;;;;;;5052961;28;20043;-76
2023/06/21 15:29:30;;;;;;;7.65;4.43;;;;;;;;;;5053880;28;20067;-76
2023/06/21 15:35:18;;;;;;;9.48;5.20;;;;;;;;;;5038525;28;20134;-74
2023/06/21 15:48:12;;;;;;;6.72;4.50;;;;;;;;;;5042759;28;20703;-73
2023/06/21 15:50:38;;;;;;;9.02;4.63;;;;;;;;;;5050482;28;20148;-74
2023/06/21 15:56:27;;;;;;;7.43;4.35;;;;;;;;;;5031281;28;20444;-73
2023/06/21 15:58:53;;;;;;;8.13;4.72;;;;;;;;;;5050170;28;20497;-74
2023/06/21 16:05:13;;;;;;;5.90;4.15;;;;;;;;;;5046098;28;20043;-73
2023/06/21 16:07:39;;;;;;;7.00;3.78;;;;;;;;;;5052278;28;20044;-73
2023/06/21 16:10:05;;;;;;;6.60;3.85;;;;;;;;;;5051316;28;20049;-76
2023/06/21 16:15:54;;;;;;;7.43;4.20;;;;;;;;;;5052959;28;20527;-76
2023/06/21 16:18:20;;;;;;;8.68;4.05;;;;;;;;;;5053105;28;20056;-75
2023/06/21 16:27:31;;;;;;;6.45;3.33;;;;;;;;;;5052181;28;20052;-76
2023/06/21 16:29:57;;;;;;;6.43;3.20;;;;;;;;;;5034475;28;20123;-76
2023/06/21 16:32:23;;;;;;;6.90;3.08;;;;;;;;;;5052821;28;20441;-76
2023/06/21 16:38:11;;;;;;;5.82;2.65;;;;;;;;;;5052782;28;20047;-76
2023/06/21 16:47:23;;;;;;;4.80;2.50;;;;;;;;;;5052527;28;20072;-76
2023/06/21 16:49:49;;;;;;;6.68;2.47;;;;;;;;;;5050791;28;20053;-76
2023/06/21 16:52:15;;;;;;;5.45;2.70;;;;;;;;;;5039564;28;20045;-76
2023/06/21 16:54:41;;;;;;;4.50;2.50;;;;;;;;;;5051385;28;20048;-76
2023/06/21 17:00:30;;;;;;;5.00;2.90;;;;;;;;;;5032504;28;20151;-77
2023/06/21 17:02:57;;;;;;;5.60;2.72;;;;;;;;;;5047578;28;20044;-77
2023/06/21 17:05:23;;;;;;;7.00;3.10;;;;;;;;;;5051668;28;20044;-76
2023/06/21 17:11:12;;;;;;;6.78;3.33;;;;;;;;;;5049963;28;20424;-78
2023/06/21 17:20:23;;;;;;;6.47;3.40;;;;;;;;;;5049150;28;20059;-75
2023/06/21 17:22:49;;;;;;;7.13;3.95;;;;;;;;;;5049518;28;20081;-77
2023/06/21 17:25:15;;;;;;;6.65;3.90;;;;;;;;;;5049562;28;20048;-77
2023/06/21 17:27:41;;;;;;;7.32;3.75;;;;;;;;;;5048788;28;20037;-77
2023/06/21 17:30:07;;;;;;;5.75;3.47;;;;;;;;;;5048940;28;20091;-76
2023/06/21 17:32:33;;;;;;;6.07;3.65;;;;;;;;;;5014102;28;20049;-78
2023/06/21 17:34:59;;;;;;;6.53;4.03;;;;;;;;;;5041561;28;20048;-78
2023/06/21 18:16:34;;;;;;;5.45;3.10;;;;;;;;;;5040403;28;20076;-80
2023/06/21 18:19:01;;;;;;;7.97;3.67;;;;;;;;;;5051546;28;20545;-79
2023/06/21 18:21:27;;;;;;;5.43;3.40;;;;;;;;;;5052227;28;20091;-79
2023/06/21 18:27:15;;;;;;;6.47;3.22;;;;;;;;;;5037247;28;20067;-79
2023/06/21 18:29:41;;;;;;;11.15;6.47;;;;;;;;;;5033756;28;20049;-78
2023/06/21 18:38:52;;;;;;;14.10;7.38;;;;;;;;;;5035061;28;20060;-78
2023/06/21 18:48:03;;;;;;;15.35;8.57;;;;;;;;;;5035990;28;20045;-77
2023/06/21 18:50:29;;;;;;;15.68;8.80;;;;;;;;;;5035909;28;20052;-78
2023/06/21 18:52:55;;;;;;;14.13;9.60;;;;;;;;;;5051391;28;20417;-78
2023/06/21 18:55:21;;;;;;;14.45;8.82;;;;;;;;;;5050998;28;20056;-78
2023/06/21 19:08:27;;;;;;;14.60;9.48;;;;;;;;;;5047089;28;20060;-80
2023/06/21 19:10:53;;;;;;;18.73;9.38;;;;;;;;;;5031090;28;20050;-80
2023/06/21 19:16:42;;;;;;;15.77;9.30;;;;;;;;;;5029887;28;20048;-79
2023/06/21 19:19:08;;;;;;;14.30;9.07;;;;;;;;;;5031428;28;20045;-79
2023/06/21 19:21:37;;;;;;;14.75;8.10;;;;;;;;;;5032043;28;20050;-79
2023/06/21 19:27:25;;;;;;;15.60;8.68;;;;;;;;;;5031212;28;20512;-79
2023/06/21 19:36:46;;;;;;;14.52;8.20;;;;;;;;;;5029941;28;20492;-78
2023/06/21 19:39:12;;;;;;;18.02;9.10;;;;;;;;;;5030351;28;20065;-78
2023/06/21 19:41:38;;;;;;;13.90;8.45;;;;;;;;;;5024461;28;20044;-79
2023/06/21 19:44:07;;;;;;;14.27;8.82;;;;;;;;;;5021818;28;20054;-79
2023/06/21 19:46:34;;;;;;;15.60;9.35;;;;;;;;;;5020408;28;20045;-79
2023/06/21 19:49:00;;;;;;;16.45;9.15;;;;;;;;;;5007570;28;20049;-80
2023/06/21 19:51:26;;;;;;;16.88;9.27;;;;;;;;;;5023213;28;20084;-79
2023/06/21 19:53:52;;;;;;;14.25;8.35;;;;;;;;;;5011493;28;20050;-79
2023/06/21 19:56:22;;;;;;;14.68;9.35;;;;;;;;;;5010908;28;20089;-78
2023/06/21 19:58:49;;;;;;;17.42;9.35;;;;;;;;;;5027121;28;20041;-77
2023/06/21 20:01:15;;;;;;;14.18;8.80;;;;;;;;;;5030523;28;20473;-77
2023/06/21 20:03:41;;;;;;;15.98;9.77;;;;;;;;;;5030557;28;20041;-77
2023/06/21 20:06:07;;;;;;;17.35;10.23;;;;;;;;;;5030862;28;20599;-77
2023/06/21 20:08:33;;;;;;;16.67;10.43;;;;;;;;;;5026820;28;20075;-77
2023/06/21 20:11:00;;;;;;;16.15;9.75;;;;;;;;;;5030356;28;20564;-76
2023/06/21 20:13:26;;;;;;;17.85;10.35;;;;;;;;;;5029575;28;20503;-77
2023/06/21 20:15:52;;;;;;;13.93;9.27;;;;;;;;;;5012770;28;20071;-77
2023/06/21 20:18:20;;;;;;;16.50;10.20;;;;;;;;;;5028992;28;20128;-76
2023/06/21 20:20:46;;;;;;;17.40;10.75;;;;;;;;;;5012799;28;20084;-76
2023/06/21 20:23:13;;;;;;;18.80;10.35;;;;;;;;;;5049427;28;20497;-77
2023/06/21 20:25:40;;;;;;;18.13;10.48;;;;;;;;;;5050194;28;20098;-77
2023/06/21 20:28:06;;;;;;;16.15;10.10;;;;;;;;;;5050527;28;20427;-77
2023/06/21 20:30:33;;;;;;;15.32;9.60;;;;;;;;;;5032185;28;20045;-77
2023/06/21 20:32:59;;;;;;;16.08;9.95;;;;;;;;;;5048707;28;20072;-77
2023/06/21 20:35:25;;;;;;;16.17;9.68;;;;;;;;;;5032196;28;20122;-77
2023/06/21 20:37:51;;;;;;;17.25;10.00;;;;;;;;;;5032700;28;20572;-77
2023/06/21 20:40:17;;;;;;;16.38;10.20;;;;;;;;;;5049733;28;20053;-77
2023/06/21 20:42:43;;;;;;;15.25;10.52;;;;;;;;;;5050726;28;20431;-77
2023/06/21 20:45:21;;;;;;;16.13;10.70;;;;;;;;;;5048112;28;20128;-77
2023/06/21 20:47:47;;;;;;;15.90;10.25;;;;;;;;;;5049060;28;20432;-77
2023/06/21 20:50:14;;;;;;;16.67;10.70;;;;;;;;;;5041412;28;20071;-77
2023/06/21 20:52:40;;;;;;;16.23;10.55;;;;;;;;;;5052910;28;20045;-77
2023/06/21 20:55:06;;;;;;;16.63;11.05;;;;;;;;;;5039778;28;20060;-77
2023/06/21 20:57:32;;;;;;;15.93;10.52;;;;;;;;;;5032384;28;20052;-77
2023/06/21 20:59:58;;;;;;;18.88;10.68;;;;;;;;;;5018578;28;20062;-78
2023/06/21 21:02:24;;;;;;;15.48;11.35;;;;;;;;;;5042749;28;20126;-77
2023/06/21 21:04:52;;;;;;;16.30;10.40;;;;;;;;;;5016024;28;20080;-76
2023/06/21 21:07:19;;;;;;;15.88;11.02;;;;;;;;;;5030770;28;20043;-76
2023/06/21 21:09:45;;;;;;;19.38;11.60;;;;;;;;;;5047305;28;20061;-77
2023/06/21 21:12:11;;;;;;;17.20;10.45;;;;;;;;;;5040289;28;20054;-77
2023/06/21 21:14:38;;;;;;;17.67;11.32;;;;;;;;;;5033936;28;20089;-76
2023/06/21 21:17:04;;;;;;;20.50;11.18;;;;;;;;;;5044981;28;20047;-77
2023/06/21 21:19:30;;;;;;;16.05;10.65;;;;;;;;;;5036385;28;20068;-77
2023/06/21 21:21:56;;;;;;;16.55;10.85;;;;;;;;;;5045167;28;20033;-77
2023/06/21 21:24:22;;;;;;;15.80;10.60;;;;;;;;;;5052008;28;20481;-77
2023/06/21 21:26:48;;;;;;;13.95;10.43;;;;;;;;;;5043723;28;20038;-77
2023/06/21 21:29:15;;;;;;;16.85;10.70;;;;;;;;;;5016018;28;20486;-76
2023/06/21 21:31:41;;;;;;;15.15;10.77;;;;;;;;;;5046610;28;20462;-76
2023/06/21 21:34:08;;;;;;;15.10;10.07;;;;;;;;;;5036897;28;20041;-76
2023/06/21 21:36:34;;;;;;;17.73;10.45;;;;;;;;;;5041147;28;20082;-76
2023/06/21 21:39:00;;;;;;;14.45;10.35;;;;;;;;;;5052089;28;20051;-77
2023/06/21 21:41:26;;;;;;;15.68;10.85;;;;;;;;;;5047884;28;20052;-76
2023/06/21 21:43:52;;;;;;;17.98;11.32;;;;;;;;;;5042171;28;20041;-76
2023/06/21 21:46:18;;;;;;;18.05;12.02;;;;;;;;;;5023606;28;20045;-77
2023/06/21 21:48:44;;;;;;;17.65;11.70;;;;;;;;;;5040795;28;20049;-76
2023/06/21 21:51:10;;;;;;;18.85;13.02;;;;;;;;;;5042048;28;20398;-76
2023/06/21 21:53:36;;;;;;;17.67;12.45;;;;;;;;;;5033914;28;20466;-76
2023/06/21 21:56:02;;;;;;;19.38;12.35;;;;;;;;;;5030631;28;20053;-76
2023/06/21 21:58:29;;;;;;;18.15;12.68;;;;;;;;;;5048097;28;20172;-76
2023/06/21 22:00:55;;;;;;;18.67;13.00;;;;;;;;;;5050787;28;20057;-77
2023/06/21 22:03:21;;;;;;;17.23;12.95;;;;;;;;;;5034191;28;20131;-77
2023/06/21 22:05:49;;;;;;;18.90;13.52;;;;;;;;;;5052163;28;20072;-77
2023/06/21 22:08:19;;;;;;;15.43;12.45;;;;;;;;;;5051905;28;20086;-77
2023/06/21 22:10:46;;;;;;;16.95;12.85;;;;;;;;;;5033999;28;20511;-77
2023/06/21 22:13:12;;;;;;;16.67;12.98;;;;;;;;;;5052274;28;20056;-77
2023/06/21 22:15:49;;;;;;;19.35;13.82;;;;;;;;;;5042425;28;20064;-77
2023/06/21 22:18:15;;;;;;;18.02;13.50;;;;;;;;;;5031605;28;20049;-77
2023/06/21 22:20:41;;;;;;;21.10;15.52;;;;;;;;;;5042703;28;20041;-77
2023/06/21 22:23:07;;;;;;;19.92;14.95;;;;;;;;;;5036659;28;20041;-77
2023/06/21 22:25:33;;;;;;;20.42;15.15;;;;;;;;;;5034312;28;20053;-77
2023/06/21 22:27:59;;;;;;;18.80;15.70;;;;;;;;;;5055322;28;20052;-77
2023/06/21 22:30:26;;;;;;;18.90;15.25;;;;;;;;;;5054837;28;20049;-77
2023/06/21 22:32:52;;;;;;;18.83;15.65;;;;;;;;;;5050823;28;20056;-77
2023/06/21 22:35:18;;;;;;;21.98;15.75;;;;;;;;;;5055239;28;20044;-77
2023/06/21 22:37:44;;;;;;;19.42;15.85;;;;;;;;;;5032662;28;20116;-77
2023/06/21 22:40:11;;;;;;;19.52;15.68;;;;;;;;;;5018477;28;20501;-77
2023/06/21 22:42:37;;;;;;;22.42;16.58;;;;;;;;;;5044843;28;20044;-77
2023/06/21 22:45:04;;;;;;;21.15;15.73;;;;;;;;;;5036909;28;20041;-77
2023/06/21 22:47:30;;;;;;;22.58;16.38;;;;;;;;;;5035292;28;20112;-77
2023/06/21 22:49:56;;;;;;;20.73;15.60;;;;;;;;;;5046199;28;20056;-78
2023/06/21 22:52:23;;;;;;;19.55;15.02;;;;;;;;;;5043679;28;20053;-77
2023/06/21 22:54:49;;;;;;;22.05;15.68;;;;;;;;;;5053576;28;20079;-77
2023/06/21 22:57:15;;;;;;;20.80;16.10;;;;;;;;;;5052632;28;20045;-77
2023/06/21 22:59:41;;;;;;;18.67;15.35;;;;;;;;;;5054738;28;20409;-77
2023/06/21 23:02:08;;;;;;;22.00;16.23;;;;;;;;;;5055097;28;20075;-77
2023/06/21 23:04:34;;;;;;;21.35;15.38;;;;;;;;;;5054898;28;20041;-76
2023/06/21 23:07:00;;;;;;;20.50;15.27;;;;;;;;;;5054818;28;20489;-77
2023/06/21 23:09:26;;;;;;;20.08;14.85;;;;;;;;;;5036230;28;20060;-77
2023/06/21 23:11:55;;;;;;;20.77;14.30;;;;;;;;;;5054650;28;20128;-77
2023/06/21 23:14:22;;;;;;;18.27;14.20;;;;;;;;;;5036647;28;20398;-78
2023/06/21 23:16:48;;;;;;;19.13;13.88;;;;;;;;;;5055064;28;20051;-77
2023/06/21 23:19:18;;;;;;;18.48;12.85;;;;;;;;;;5058898;28;20120;-77
2023/06/21 23:21:45;;;;;;;17.65;13.55;;;;;;;;;;5054748;28;20053;-77
2023/06/21 23:24:11;;;;;;;17.60;12.93;;;;;;;;;;5050958;28;20049;-76
2023/06/21 23:26:38;;;;;;;15.88;12.00;;;;;;;;;;5035299;28;20037;-77
2023/06/21 23:29:08;;;;;;;15.60;11.90;;;;;;;;;;5034619;28;20410;-77
2023/06/21 23:31:34;;;;;;;21.08;13.15;;;;;;;;;;5038762;28;20056;-77
2023/06/21 23:34:01;;;;;;;17.13;12.57;;;;;;;;;;5036883;28;20041;-77
2023/06/21 23:36:30;;;;;;;18.08;13.15;;;;;;;;;;5029208;28;20456;-77
2023/06/21 23:38:58;;;;;;;19.23;13.73;;;;;;;;;;5034588;28;20052;-77
2023/06/21 23:41:24;;;;;;;19.23;13.30;;;;;;;;;;5048301;28;20048;-77
2023/06/21 23:44:04;;;;;;;17.70;13.80;;;;;;;;;;5051623;28;20053;-77
2023/06/21 23:46:33;;;;;;;20.73;13.93;;;;;;;;;;5054034;28;20041;-77
2023/06/21 23:49:00;;;;;;;18.13;13.75;;;;;;;;;;5042220;28;20046;-77
2023/06/21 23:51:27;;;;;;;19.45;13.75;;;;;;;;;;5035358;28;20049;-76
2023/06/21 23:53:53;;;;;;;20.70;15.57;;;;;;;;;;5046490;28;20049;-77
2023/06/21 23:56:23;;;;;;;22.80;16.00;;;;;;;;;;5034239;28;20064;-77
2023/06/21 23:58:50;;;;;;;20.13;15.63;;;;;;;;;;5042589;28;20045;-77
